createdAt,value
2023-01-23T00:02:36.243Z,3.55
2023-01-23T00:07:40.214Z,3.23
2023-01-23T00:12:43.400Z,3.63
2023-01-23T00:17:46.381Z,3.80
2023-01-23T00:22:50.517Z,3.77
2023-01-23T00:27:53.136Z,3.96
2023-01-23T00:32:55.770Z,4.04
2023-01-23T00:37:59.982Z,3.14
2023-01-23T00:43:02.921Z,3.84
2023-01-23T00:48:05.749Z,3.84
2023-01-23T00:53:09.843Z,3.85
2023-01-23T00:58:12.920Z,3.69
2023-01-23T01:03:15.492Z,3.85
2023-01-23T01:08:19.603Z,3.97
2023-01-23T01:13:23.647Z,3.80
2023-01-23T01:18:26.192Z,3.39
2023-01-23T01:23:30.115Z,3.94
2023-01-23T01:28:33.565Z,4.01
2023-01-23T01:33:38.033Z,4.02
2023-01-23T01:38:41.945Z,4.11
2023-01-23T01:43:45.297Z,4.16
2023-01-23T01:48:59.992Z,4.15
2023-01-23T01:54:10.116Z,4.14
2023-01-23T01:59:14.021Z,4.17
2023-01-23T02:04:16.702Z,4.21
2023-01-23T02:09:25.287Z,4.17
2023-01-23T02:14:28.469Z,4.00
2023-01-23T02:19:45.101Z,3.88
2023-01-23T02:24:57.074Z,4.23
2023-01-23T02:30:01.109Z,4.31
2023-01-23T02:35:12.657Z,4.23
2023-01-23T02:40:17.302Z,4.36
2023-01-23T02:45:21.422Z,4.33
2023-01-23T02:50:25.649Z,4.33
2023-01-23T02:55:30.040Z,4.36
2023-01-23T03:00:34.001Z,4.36
2023-01-23T03:05:36.736Z,4.14
2023-01-23T03:10:39.465Z,4.35
2023-01-23T03:15:43.407Z,4.45
2023-01-23T03:20:46.488Z,4.26
2023-01-23T03:25:49.489Z,4.23
2023-01-23T03:30:53.561Z,4.20
2023-01-23T03:35:56.686Z,3.50
2023-01-23T03:41:17.261Z,4.20
2023-01-23T03:46:21.683Z,3.95
2023-01-23T03:51:24.464Z,4.24
2023-01-23T03:56:27.430Z,4.24
2023-01-23T04:01:33.152Z,4.19
2023-01-23T04:06:36.711Z,4.20
2023-01-23T04:11:39.357Z,4.16
2023-01-23T04:17:04.585Z,4.26
2023-01-23T04:22:28.070Z,4.28
2023-01-23T04:27:51.071Z,4.29
2023-01-23T04:33:15.144Z,4.34
2023-01-23T04:38:37.979Z,4.38
2023-01-23T04:44:30.097Z,4.40
2023-01-23T04:49:53.564Z,4.40
2023-01-23T04:54:56.360Z,4.41
2023-01-23T05:00:00.578Z,4.37
2023-01-23T05:05:07.230Z,4.42
2023-01-23T05:10:11.916Z,4.47
2023-01-23T05:15:15.071Z,4.41
2023-01-23T05:20:23.424Z,4.38
2023-01-23T05:25:28.507Z,4.34
2023-01-23T05:30:33.172Z,4.43
2023-01-23T05:36:03.616Z,4.45
2023-01-23T05:41:06.320Z,4.44
2023-01-23T05:46:32.199Z,4.51
2023-01-23T05:51:37.338Z,4.51
2023-01-23T05:56:40.909Z,4.51
2023-01-23T06:02:02.338Z,4.20
2023-01-23T06:07:26.266Z,4.38
2023-01-23T06:12:32.669Z,4.34
2023-01-23T06:17:35.289Z,4.36
2023-01-23T06:22:39.385Z,4.10
2023-01-23T06:27:46.471Z,4.40
2023-01-23T06:32:49.835Z,4.44
2023-01-23T06:37:58.230Z,4.67
2023-01-23T06:43:04.191Z,4.64
2023-01-23T06:48:07.906Z,4.35
2023-01-23T06:53:15.208Z,4.61
2023-01-23T06:58:19.999Z,4.57
2023-01-23T07:03:24.701Z,4.02
2023-01-23T07:08:28.956Z,4.59
2023-01-23T07:13:32.412Z,4.56
2023-01-23T07:18:35.953Z,4.65
2023-01-23T07:23:43.094Z,4.64
2023-01-23T07:28:45.709Z,4.58
2023-01-23T07:33:48.313Z,4.67
2023-01-23T07:38:52.236Z,4.62
2023-01-23T07:43:54.792Z,4.67
2023-01-23T07:48:57.532Z,4.48
2023-01-23T07:54:01.550Z,4.75
2023-01-23T07:59:04.413Z,4.74
2023-01-23T08:04:07.316Z,4.71
2023-01-23T08:09:11.530Z,4.78
2023-01-23T08:14:14.181Z,4.79
2023-01-23T08:19:16.759Z,4.72
2023-01-23T08:24:21.116Z,4.75
2023-01-23T08:29:23.691Z,4.79
2023-01-23T08:34:26.490Z,4.86
2023-01-23T08:39:31.093Z,4.94
2023-01-23T08:51:21.489Z,5.05
2023-01-23T08:56:26.204Z,4.44
2023-01-23T09:01:29.447Z,5.15
2023-01-23T09:06:32.011Z,5.14
2023-01-23T09:11:37.269Z,5.16
2023-01-23T09:16:40.804Z,5.10
2023-01-23T09:21:43.393Z,5.18
2023-01-23T09:26:47.314Z,5.17
2023-01-23T09:31:49.997Z,4.96
2023-01-23T09:36:53.435Z,5.07
2023-01-23T09:41:57.372Z,5.20
2023-01-23T09:47:05.743Z,4.54
2023-01-23T09:52:13.453Z,5.17
2023-01-23T09:57:22.997Z,5.24
2023-01-23T10:02:27.052Z,5.04
2023-01-23T10:07:50.954Z,5.31
2023-01-23T10:13:09.038Z,5.25
2023-01-23T10:18:21.676Z,4.91
2023-01-23T10:23:40.976Z,5.34
2023-01-23T10:28:47.314Z,5.18
2023-01-23T10:33:56.352Z,5.36
2023-01-23T10:39:02.864Z,5.43
2023-01-23T10:44:15.755Z,5.46
2023-01-23T10:49:33.265Z,5.55
2023-01-23T10:54:46.761Z,5.68
2023-01-23T10:59:56.652Z,5.68
2023-01-23T11:05:00.463Z,5.59
2023-01-23T11:10:19.044Z,5.48
2023-01-23T11:15:25.405Z,5.71
2023-01-23T11:20:31.825Z,5.58
2023-01-23T11:25:37.585Z,5.31
2023-01-23T11:30:48.364Z,5.62
2023-01-23T11:35:57.375Z,5.69
2023-01-23T11:48:06.231Z,5.73
2023-01-23T11:53:30.510Z,5.69
2023-01-23T11:59:09.047Z,5.73
2023-01-23T12:04:44.555Z,5.75
2023-01-23T12:09:59.427Z,5.40
2023-01-23T12:15:07.608Z,5.70
2023-01-23T12:20:32.077Z,5.75
2023-01-23T12:25:36.541Z,5.82
2023-01-23T12:31:12.439Z,5.81
2023-01-23T12:36:29.833Z,5.79
2023-01-23T12:41:37.911Z,5.85
2023-01-23T12:46:45.845Z,5.89
2023-01-23T12:51:54.560Z,5.89
2023-01-23T12:56:58.678Z,5.25
2023-01-23T13:02:10.985Z,5.98
2023-01-23T13:07:25.832Z,5.94
2023-01-23T13:12:29.616Z,5.99
2023-01-23T13:17:37.826Z,5.96
2023-01-23T13:22:41.810Z,5.92
2023-01-23T13:27:52.774Z,5.88
2023-01-23T13:33:00.584Z,5.98
2023-01-23T13:38:32.088Z,5.92
2023-01-23T13:43:44.637Z,5.96
2023-01-23T14:21:41.139Z,5.97
2023-01-23T14:26:50.190Z,5.95
2023-01-23T14:31:53.508Z,5.93
2023-01-23T14:37:06.735Z,5.91
2023-01-23T14:42:26.343Z,5.81
2023-01-23T14:47:34.731Z,5.92
2023-01-23T14:52:38.206Z,5.84
2023-01-23T14:57:42.392Z,5.79
2023-01-23T15:02:46.491Z,5.84
2023-01-23T15:07:54.349Z,5.88
2023-01-23T15:13:01.953Z,5.98
2023-01-23T15:18:15.984Z,5.72
2023-01-23T15:23:31.116Z,5.93
2023-01-23T15:28:41.554Z,5.95
2023-01-23T15:33:45.156Z,5.92
2023-01-23T15:38:48.312Z,5.93
2023-01-23T15:43:52.197Z,5.87
2023-01-23T15:48:54.867Z,5.82
2023-01-23T15:53:57.877Z,5.80
2023-01-23T15:59:02.674Z,5.88
2023-01-23T16:04:05.762Z,5.85
2023-01-23T16:09:12.532Z,5.87
2023-01-23T16:14:18.729Z,5.91
2023-01-23T16:19:21.297Z,5.93
2023-01-23T16:24:25.635Z,5.87
2023-01-23T16:29:31.685Z,5.84
2023-01-23T16:34:34.402Z,5.89
2023-01-23T16:39:37.416Z,5.84
2023-01-23T16:44:41.346Z,5.82
2023-01-23T16:49:51.943Z,5.70
2023-01-23T16:54:56.117Z,5.67
2023-01-23T17:00:00.292Z,5.76
2023-01-23T17:05:02.898Z,5.85
2023-01-23T17:10:06.164Z,5.81
2023-01-23T17:15:19.830Z,5.89
2023-01-23T17:20:25.552Z,5.89
2023-01-23T17:25:31.417Z,5.77
2023-01-23T17:30:36.508Z,5.87
2023-01-23T17:35:40.459Z,5.90
2023-01-23T17:40:43.016Z,5.90
2023-01-23T17:45:50.049Z,5.95
2023-01-23T17:50:54.715Z,5.93
2023-01-23T17:55:57.538Z,5.71
2023-01-23T18:01:01.649Z,5.90
2023-01-23T18:06:04.753Z,5.79
2023-01-23T18:11:17.050Z,5.83
2023-01-23T18:16:33.603Z,5.79
2023-01-23T18:21:38.865Z,5.82
2023-01-23T18:26:50.799Z,5.81
2023-01-23T18:32:14.844Z,5.73
2023-01-23T18:37:25.752Z,5.66
2023-01-23T18:42:41.329Z,5.77
2023-01-23T18:47:48.166Z,5.82
2023-01-23T18:53:06.170Z,5.83
2023-01-23T18:58:26.737Z,5.60
2023-01-23T19:03:39.794Z,5.80
2023-01-23T19:08:43.080Z,5.74
2023-01-23T19:13:57.601Z,5.74
2023-01-23T19:19:15.734Z,5.78
2023-01-23T19:24:20.700Z,5.67
2023-01-23T19:29:23.775Z,5.77
2023-01-23T19:34:28.150Z,5.78
2023-01-23T19:39:30.730Z,5.70
2023-01-23T19:44:42.495Z,5.79
2023-01-23T19:49:46.432Z,5.82
2023-01-23T19:54:48.969Z,5.79
2023-01-23T19:59:51.530Z,5.82
2023-01-23T20:04:57.563Z,5.78
2023-01-23T20:10:00.109Z,5.81
2023-01-23T20:15:02.986Z,5.78
2023-01-23T20:20:09.601Z,5.69
2023-01-23T20:25:17.692Z,5.70
2023-01-23T20:30:21.908Z,5.67
2023-01-23T20:35:27.228Z,5.73
2023-01-23T20:40:30.090Z,5.48
2023-01-23T20:45:33.261Z,5.81
2023-01-23T20:50:37.858Z,5.75
2023-01-23T20:55:40.616Z,5.74
2023-01-23T21:00:44.436Z,5.76
2023-01-23T21:05:48.329Z,5.83
2023-01-23T21:10:52.367Z,5.82
2023-01-23T21:15:58.977Z,5.92
2023-01-23T21:21:08.544Z,5.77
2023-01-23T21:26:11.560Z,6.00
2023-01-23T21:31:16.136Z,6.37
2023-01-23T21:36:23.166Z,6.56
2023-01-23T21:41:25.720Z,6.87
2023-01-23T21:46:28.446Z,6.50
2023-01-23T21:51:32.709Z,6.42
2023-01-23T21:56:35.300Z,6.26
2023-01-23T22:01:42.195Z,6.13
2023-01-23T22:06:46.875Z,6.06
2023-01-23T22:11:53.160Z,5.99
2023-01-23T22:16:57.096Z,6.01
2023-01-23T22:22:01.050Z,5.92
2023-01-23T22:27:03.886Z,5.96
2023-01-23T22:32:06.528Z,5.94
2023-01-23T22:37:10.517Z,5.88
2023-01-23T22:42:13.163Z,5.42
2023-01-23T22:47:15.900Z,5.72
2023-01-23T22:52:19.820Z,5.84
2023-01-23T22:57:22.450Z,5.84
2023-01-23T23:02:24.996Z,5.77
2023-01-23T23:07:28.992Z,5.61
2023-01-23T23:12:31.596Z,5.69
2023-01-23T23:17:34.234Z,5.67
2023-01-23T23:22:38.171Z,5.73
2023-01-23T23:27:40.831Z,5.69
2023-01-23T23:32:43.380Z,5.63
2023-01-23T23:37:47.332Z,5.63
2023-01-23T23:42:50.251Z,5.70
2023-01-23T23:47:52.877Z,5.76
2023-01-23T23:52:56.916Z,5.72
2023-01-23T23:58:00.173Z,5.56
